createdAt,value
2018-07-13T00:00:10.257Z,77.86
2018-07-13T00:01:10.254Z,77.63
2018-07-13T00:02:10.249Z,77.34
2018-07-13T00:03:10.248Z,77.53
2018-07-13T00:04:10.244Z,77.44
2018-07-13T00:05:10.296Z,77.53
2018-07-13T00:06:10.238Z,78.50
2018-07-13T00:07:10.236Z,78.40
2018-07-13T00:08:10.246Z,78.88
2018-07-13T00:09:10.234Z,78.88
2018-07-13T00:10:10.227Z,78.69
2018-07-13T00:11:10.223Z,79.17
2018-07-13T00:12:10.217Z,78.98
2018-07-13T00:13:10.216Z,78.59
2018-07-13T00:14:10.211Z,78.69
2018-07-13T00:15:10.262Z,79.07
2018-07-13T00:16:10.205Z,79.46
2018-07-13T00:17:10.207Z,79.17
2018-07-13T00:18:10.209Z,79.84
2018-07-13T00:19:10.200Z,79.84
2018-07-13T00:20:10.202Z,77.88
2018-07-13T00:21:10.198Z,77.44
2018-07-13T00:22:10.185Z,77.40
2018-07-13T00:23:10.188Z,76.96
2018-07-13T00:24:10.179Z,77.34
2018-07-13T00:25:10.235Z,77.15
2018-07-13T00:26:10.172Z,76.48
2018-07-13T00:27:10.168Z,77.44
2018-07-13T00:28:10.166Z,77.63
2018-07-13T00:29:10.165Z,77.92
2018-07-13T00:30:10.173Z,77.78
2018-07-13T00:31:10.152Z,77.59
2018-07-13T00:32:10.158Z,77.88
2018-07-13T00:33:10.153Z,77.83
2018-07-13T00:34:10.143Z,77.88
2018-07-13T00:35:10.182Z,77.21
2018-07-13T00:36:10.137Z,77.44
2018-07-13T00:37:10.138Z,77.44
2018-07-13T00:38:10.131Z,77.44
2018-07-13T00:39:10.140Z,77.53
2018-07-13T00:40:10.127Z,77.40
2018-07-13T00:41:10.124Z,77.98
2018-07-13T00:42:10.114Z,77.69
2018-07-13T00:43:10.118Z,77.78
2018-07-13T00:44:10.116Z,77.88
2018-07-13T00:45:10.167Z,78.17
2018-07-13T00:46:10.109Z,78.27
2018-07-13T00:47:10.107Z,78.55
2018-07-13T00:48:10.094Z,78.75
2018-07-13T00:49:10.090Z,78.17
2018-07-13T00:50:10.100Z,77.78
2018-07-13T00:51:10.084Z,77.78
2018-07-13T00:52:10.082Z,77.78
2018-07-13T00:53:10.082Z,77.50
2018-07-13T00:54:10.078Z,77.31
2018-07-13T00:55:10.079Z,77.40
2018-07-13T00:56:10.071Z,77.50
2018-07-13T00:57:10.077Z,77.31
2018-07-13T00:58:10.060Z,77.78
2018-07-13T00:59:10.079Z,77.88
2018-07-13T01:00:10.072Z,77.98
2018-07-13T01:01:10.049Z,77.88
2018-07-13T01:02:10.055Z,78.36
2018-07-13T01:03:10.042Z,78.94
2018-07-13T01:04:10.037Z,79.22
2018-07-13T01:05:10.044Z,79.61
2018-07-13T01:06:10.033Z,79.52
2018-07-13T01:07:10.027Z,79.32
2018-07-13T01:08:10.024Z,79.80
2018-07-13T01:09:10.028Z,80.09
2018-07-13T01:10:10.020Z,79.32
2018-07-13T01:11:10.023Z,80.47
2018-07-13T01:12:10.010Z,80.28
2018-07-13T01:13:10.007Z,79.90
2018-07-13T01:14:10.006Z,79.90
2018-07-13T01:15:10.012Z,80.38
2018-07-13T01:16:10.006Z,80.76
2018-07-13T01:17:09.997Z,80.76
2018-07-13T01:18:09.990Z,81.05
2018-07-13T01:19:10.002Z,81.05
2018-07-13T01:20:09.981Z,80.96
2018-07-13T01:21:09.979Z,80.19
2018-07-13T01:22:10.018Z,80.76
2018-07-13T01:23:10.054Z,81.40
2018-07-13T01:24:09.969Z,81.68
2018-07-13T01:25:10.104Z,81.49
2018-07-13T01:26:09.965Z,81.78
2018-07-13T01:27:10.028Z,81.97
2018-07-13T01:28:10.020Z,82.26
2018-07-13T01:29:09.954Z,82.35
2018-07-13T01:30:09.947Z,82.45
2018-07-13T01:31:09.943Z,82.07
2018-07-13T01:32:09.992Z,81.40
2018-07-13T01:33:09.937Z,81.59
2018-07-13T01:34:09.933Z,81.78
2018-07-13T01:35:09.929Z,81.59
2018-07-13T01:36:09.926Z,81.59
2018-07-13T01:37:09.929Z,82.16
2018-07-13T01:38:09.918Z,81.87
2018-07-13T01:39:09.914Z,81.40
2018-07-13T01:40:09.911Z,81.59
2018-07-13T01:41:09.909Z,81.20
2018-07-13T01:42:09.911Z,81.49
2018-07-13T01:43:09.898Z,81.30
2018-07-13T01:44:09.907Z,81.49
2018-07-13T01:45:09.892Z,81.78
2018-07-13T01:46:09.894Z,81.87
2018-07-13T01:47:09.889Z,81.87
2018-07-13T01:48:09.885Z,81.78
2018-07-13T01:49:09.884Z,82.64
2018-07-13T01:50:09.886Z,82.16
2018-07-13T01:51:09.878Z,82.64
2018-07-13T01:52:09.920Z,82.84
2018-07-13T01:53:09.865Z,82.64
2018-07-13T01:54:09.866Z,82.64
2018-07-13T01:55:09.868Z,82.84
2018-07-13T01:56:09.875Z,82.84
2018-07-13T01:57:09.855Z,82.35
2018-07-13T01:58:09.853Z,83.41
2018-07-13T01:59:09.839Z,82.89
2018-07-13T02:00:09.837Z,82.79
2018-07-13T02:01:09.844Z,82.31
2018-07-13T02:02:09.891Z,82.41
2018-07-13T02:03:09.824Z,82.41
2018-07-13T02:04:09.825Z,82.16
2018-07-13T02:05:09.818Z,82.64
2018-07-13T02:06:09.813Z,82.26
2018-07-13T02:07:09.809Z,82.45
2018-07-13T02:08:09.818Z,82.45
2018-07-13T02:09:09.837Z,82.03
2018-07-13T02:10:09.796Z,82.79
2018-07-13T02:11:09.798Z,82.89
2018-07-13T02:12:09.787Z,83.08
2018-07-13T02:13:09.789Z,83.18
2018-07-13T02:14:09.789Z,83.37
2018-07-13T02:15:09.776Z,82.79
2018-07-13T02:16:09.788Z,82.60
2018-07-13T02:17:09.774Z,82.51
2018-07-13T02:18:09.765Z,82.60
2018-07-13T02:19:09.805Z,83.27
2018-07-13T02:20:09.756Z,83.47
2018-07-13T02:21:09.757Z,83.56
2018-07-13T02:22:09.749Z,83.27
2018-07-13T02:23:09.744Z,83.65
2018-07-13T02:24:09.744Z,84.04
2018-07-13T02:25:09.736Z,83.65
2018-07-13T02:26:09.740Z,83.47
2018-07-13T02:27:09.737Z,83.94
2018-07-13T02:28:09.723Z,84.52
2018-07-13T02:29:09.771Z,85.10
2018-07-13T02:30:09.727Z,85.00
2018-07-13T02:31:09.712Z,85.19
2018-07-13T02:32:09.709Z,84.91
2018-07-13T02:33:09.713Z,84.42
2018-07-13T02:34:09.705Z,84.42
2018-07-13T02:35:09.700Z,84.61
2018-07-13T02:36:09.706Z,85.10
2018-07-13T02:37:09.688Z,85.10
2018-07-13T02:38:09.694Z,85.58
2018-07-13T02:39:09.792Z,84.91
2018-07-13T02:40:09.678Z,84.14
2018-07-13T02:41:09.681Z,85.10
2018-07-13T02:42:09.669Z,84.61
2018-07-13T02:43:09.679Z,84.14
2018-07-13T02:44:09.661Z,85.10
2018-07-13T02:45:09.656Z,84.91
2018-07-13T02:46:09.694Z,84.52
2018-07-13T02:47:09.656Z,84.86
2018-07-13T02:48:09.645Z,84.33
2018-07-13T02:49:09.640Z,84.58
2018-07-13T02:50:09.637Z,85.15
2018-07-13T02:51:09.632Z,85.05
2018-07-13T02:52:09.627Z,84.95
2018-07-13T02:53:09.629Z,85.67
2018-07-13T02:54:09.621Z,85.72
2018-07-13T02:55:09.616Z,85.82
2018-07-13T02:56:09.620Z,85.72
2018-07-13T02:57:09.609Z,85.53
2018-07-13T02:58:09.604Z,85.34
2018-07-13T02:59:09.607Z,85.77
2018-07-13T03:00:09.608Z,85.72
2018-07-13T03:01:09.598Z,85.92
2018-07-13T03:02:09.590Z,86.21
2018-07-13T03:03:09.641Z,86.97
2018-07-13T03:04:09.588Z,87.26
2018-07-13T03:05:09.573Z,86.97
2018-07-13T03:06:09.571Z,87.35
2018-07-13T03:07:09.570Z,86.97
2018-07-13T03:08:09.563Z,87.07
2018-07-13T03:09:09.556Z,87.26
2018-07-13T03:10:09.568Z,87.26
2018-07-13T03:11:09.548Z,87.26
2018-07-13T03:12:09.543Z,87.93
2018-07-13T03:13:09.574Z,88.02
2018-07-13T03:14:09.536Z,88.22
2018-07-13T03:15:09.534Z,87.35
2018-07-13T03:16:09.535Z,87.45
2018-07-13T03:17:09.522Z,87.64
2018-07-13T03:18:09.519Z,88.12
2018-07-13T03:19:09.551Z,88.22
2018-07-13T03:20:09.509Z,88.22
2018-07-13T03:21:09.508Z,88.02
2018-07-13T03:22:09.537Z,88.51
2018-07-13T03:23:09.538Z,88.02
2018-07-13T03:24:09.493Z,88.12
2018-07-13T03:25:09.487Z,88.17
2018-07-13T03:26:09.485Z,88.94
2018-07-13T03:27:09.493Z,88.75
2018-07-13T03:28:09.487Z,89.13
2018-07-13T03:29:09.470Z,89.47
2018-07-13T03:30:09.488Z,89.42
2018-07-13T03:31:09.487Z,89.32
2018-07-13T03:32:09.464Z,90.00
2018-07-13T03:33:09.456Z,89.51
2018-07-13T03:34:09.450Z,90.09
2018-07-13T03:35:09.455Z,90.19
2018-07-13T03:36:09.448Z,89.71
2018-07-13T03:37:09.440Z,89.85
2018-07-13T03:38:09.440Z,89.71
2018-07-13T03:39:09.427Z,89.80
2018-07-13T03:40:09.455Z,90.00
2018-07-13T03:41:09.428Z,89.51
2018-07-13T03:42:09.417Z,89.32
2018-07-13T03:43:09.413Z,88.65
2018-07-13T03:44:09.413Z,88.75
2018-07-13T03:45:09.400Z,88.75
2018-07-13T03:46:09.397Z,89.61
2018-07-13T03:47:09.402Z,89.61
2018-07-13T03:48:09.390Z,89.04
2018-07-13T03:49:09.389Z,89.51
2018-07-13T03:50:09.382Z,89.61
2018-07-13T03:51:09.384Z,89.04
2018-07-13T03:52:09.371Z,89.80
2018-07-13T03:53:09.368Z,89.90
2018-07-13T03:54:09.408Z,90.09
2018-07-13T03:55:09.360Z,89.61
2018-07-13T03:56:09.354Z,88.94
2018-07-13T03:57:09.371Z,89.42
2018-07-13T03:58:09.348Z,89.42
2018-07-13T03:59:09.341Z,89.51
2018-07-13T04:00:09.341Z,89.42
2018-07-13T04:01:09.338Z,89.04
2018-07-13T04:02:09.339Z,90.00
2018-07-13T04:03:09.323Z,89.80
2018-07-13T04:04:09.327Z,90.00
2018-07-13T04:05:09.313Z,90.19
2018-07-13T04:06:09.313Z,90.09
2018-07-13T04:07:09.551Z,89.90
2018-07-13T04:08:09.302Z,89.42
2018-07-13T04:09:09.295Z,89.56
2018-07-13T04:10:09.350Z,89.90
2018-07-13T04:11:09.300Z,89.80
2018-07-13T04:12:09.294Z,89.90
2018-07-13T04:13:09.278Z,90.57
2018-07-13T04:14:09.276Z,90.67
2018-07-13T04:15:09.269Z,90.28
2018-07-13T04:16:09.262Z,90.76
2018-07-13T04:17:09.267Z,91.43
2018-07-13T04:18:09.260Z,91.14
2018-07-13T04:19:09.257Z,91.34
2018-07-13T04:20:09.248Z,90.47
2018-07-13T04:21:09.249Z,90.42
2018-07-13T04:22:09.238Z,90.33
2018-07-13T04:23:09.234Z,89.65
2018-07-13T04:24:09.250Z,89.85
2018-07-13T04:25:09.227Z,89.47
2018-07-13T04:26:09.220Z,89.56
2018-07-13T04:27:09.216Z,88.17
2018-07-13T04:28:09.214Z,86.19
2018-07-13T04:29:09.207Z,82.63
2018-07-13T04:30:09.214Z,80.11
2018-07-13T04:31:09.207Z,76.88
2018-07-13T04:32:09.207Z,74.90
2018-07-13T04:33:09.203Z,72.43
2018-07-13T04:34:09.283Z,70.54
2018-07-13T04:35:09.182Z,68.84
2018-07-13T04:36:09.179Z,67.04
2018-07-13T04:37:09.187Z,65.82
2018-07-13T04:38:09.176Z,64.47
2018-07-13T04:39:09.180Z,63.53
2018-07-13T04:40:09.180Z,62.31
2018-07-13T04:41:09.262Z,61.34
2018-07-13T04:42:09.171Z,60.79
2018-07-13T04:43:09.183Z,60.60
2018-07-13T04:44:09.171Z,59.56
2018-07-13T04:45:09.171Z,59.47
2018-07-13T04:46:09.175Z,58.44
2018-07-13T04:47:09.169Z,57.08
2018-07-13T04:48:09.172Z,57.11
2018-07-13T04:49:09.174Z,56.75
2018-07-13T04:50:09.242Z,55.98
2018-07-13T04:51:09.175Z,55.58
2018-07-13T04:52:09.180Z,55.22
2018-07-13T04:53:09.173Z,54.84
2018-07-13T04:54:09.175Z,54.16
2018-07-13T04:55:09.177Z,54.16
2018-07-13T04:56:09.179Z,53.61
2018-07-13T04:57:09.188Z,53.31
2018-07-13T04:58:09.198Z,53.12
2018-07-13T04:59:09.200Z,52.83
2018-07-13T05:00:09.191Z,52.37
2018-07-13T05:01:09.195Z,51.79
2018-07-13T05:02:09.199Z,51.79
2018-07-13T05:03:09.207Z,51.23
2018-07-13T05:04:09.207Z,50.72
2018-07-13T05:05:09.212Z,51.01
2018-07-13T05:06:09.265Z,51.40
2018-07-13T05:07:09.221Z,51.11
2018-07-13T05:08:09.225Z,50.94
2018-07-13T05:09:09.229Z,50.84
2018-07-13T05:10:09.234Z,50.29
2018-07-13T05:11:09.239Z,49.71
2018-07-13T05:12:09.247Z,49.90
2018-07-13T05:13:09.247Z,49.24
2018-07-13T05:14:09.254Z,48.75
2018-07-13T05:15:09.258Z,48.75
2018-07-13T05:16:09.267Z,48.27
2018-07-13T05:17:09.267Z,48.37
2018-07-13T05:18:09.278Z,48.37
2018-07-13T05:19:09.284Z,48.47
2018-07-13T05:20:09.286Z,47.91
2018-07-13T05:21:09.286Z,47.61
2018-07-13T05:22:09.296Z,47.49
2018-07-13T05:23:09.306Z,47.98
2018-07-13T05:24:09.302Z,48.66
2018-07-13T05:25:09.309Z,48.54
2018-07-13T05:26:09.328Z,49.12
2018-07-13T05:27:09.317Z,49.80
2018-07-13T05:28:09.316Z,50.16
2018-07-13T05:29:09.318Z,50.43
2018-07-13T05:30:09.322Z,50.72
2018-07-13T05:31:09.324Z,51.37
2018-07-13T05:32:09.328Z,51.67
2018-07-13T05:33:09.342Z,52.42
2018-07-13T05:34:09.334Z,52.80
2018-07-13T05:35:09.343Z,53.17
2018-07-13T05:36:09.338Z,53.85
2018-07-13T05:37:09.341Z,54.39
2018-07-13T05:38:09.350Z,54.98
2018-07-13T05:39:09.348Z,54.98
2018-07-13T05:40:09.347Z,54.79
2018-07-13T05:41:09.352Z,55.53
2018-07-13T05:42:09.349Z,55.43
2018-07-13T05:43:09.354Z,56.11
2018-07-13T05:44:09.351Z,56.88
2018-07-13T05:45:09.352Z,56.79
2018-07-13T05:46:09.358Z,57.24
2018-07-13T05:47:09.368Z,57.44
2018-07-13T05:48:09.353Z,57.63
2018-07-13T05:49:09.362Z,58.31
2018-07-13T05:50:09.358Z,58.50
2018-07-13T05:51:09.370Z,58.86
2018-07-13T05:52:09.368Z,58.95
2018-07-13T05:53:09.374Z,59.25
2018-07-13T05:54:09.360Z,59.63
2018-07-13T05:55:09.370Z,59.80
2018-07-13T05:56:09.360Z,59.80
2018-07-13T05:57:09.363Z,59.99
2018-07-13T05:58:09.375Z,60.09
2018-07-13T05:59:09.367Z,60.38
2018-07-13T06:00:09.372Z,60.86
2018-07-13T06:01:09.364Z,60.21
2018-07-13T06:02:09.369Z,59.83
2018-07-13T06:03:09.368Z,59.53
2018-07-13T06:04:09.364Z,59.73
2018-07-13T06:05:09.364Z,59.83
2018-07-13T06:06:09.365Z,60.02
2018-07-13T06:07:09.375Z,60.02
2018-07-13T06:08:09.366Z,60.41
2018-07-13T06:09:09.370Z,60.11
2018-07-13T06:10:09.370Z,60.50
2018-07-13T06:11:09.367Z,60.41
2018-07-13T06:12:09.367Z,60.50
2018-07-13T06:13:09.369Z,60.86
2018-07-13T06:14:09.365Z,60.96
2018-07-13T06:15:09.418Z,60.47
2018-07-13T06:16:09.367Z,60.41
2018-07-13T06:17:09.368Z,59.92
2018-07-13T06:18:09.374Z,59.34
2018-07-13T06:19:09.376Z,58.95
2018-07-13T06:20:09.378Z,59.34
2018-07-13T06:21:09.368Z,59.34
2018-07-13T06:22:09.374Z,59.44
2018-07-13T06:23:09.373Z,59.44
2018-07-13T06:24:09.385Z,59.83
2018-07-13T06:25:09.372Z,59.73
2018-07-13T06:26:09.376Z,60.14
2018-07-13T06:27:09.369Z,59.38
2018-07-13T06:28:09.381Z,57.73
2018-07-13T06:29:09.379Z,56.76
2018-07-13T06:30:09.392Z,57.24
2018-07-13T06:31:09.369Z,56.76
2018-07-13T06:32:09.380Z,57.05
2018-07-13T06:33:09.372Z,57.05
2018-07-13T06:34:09.381Z,57.08
2018-07-13T06:35:09.376Z,56.98
2018-07-13T06:36:09.385Z,56.95
2018-07-13T06:37:09.382Z,55.99
2018-07-13T06:38:09.378Z,56.18
2018-07-13T06:39:09.404Z,56.21
2018-07-13T06:40:09.381Z,55.82
2018-07-13T06:41:09.374Z,55.79
2018-07-13T06:42:09.373Z,56.02
2018-07-13T06:43:09.372Z,56.40
2018-07-13T06:44:09.383Z,56.70
2018-07-13T06:45:09.374Z,56.02
2018-07-13T06:46:09.375Z,56.21
2018-07-13T06:47:09.374Z,56.30
2018-07-13T06:48:09.378Z,56.60
2018-07-13T06:49:09.387Z,56.21
2018-07-13T06:50:09.375Z,56.21
2018-07-13T06:51:09.384Z,55.82
2018-07-13T06:52:09.386Z,56.24
2018-07-13T06:53:09.383Z,56.40
2018-07-13T06:54:09.378Z,56.34
2018-07-13T06:55:09.385Z,56.34
2018-07-13T06:56:09.380Z,56.24
2018-07-13T06:57:09.379Z,56.24
2018-07-13T06:58:09.394Z,55.56
2018-07-13T06:59:09.383Z,55.66
2018-07-13T07:00:09.381Z,55.58
2018-07-13T07:01:09.391Z,55.10
2018-07-13T07:02:09.383Z,54.43
2018-07-13T07:03:09.383Z,54.52
2018-07-13T07:04:09.398Z,54.62
2018-07-13T07:05:09.384Z,54.52
2018-07-13T07:06:09.389Z,54.52
2018-07-13T07:07:09.392Z,54.91
2018-07-13T07:08:09.389Z,54.71
2018-07-13T07:09:09.398Z,53.94
2018-07-13T07:10:09.401Z,54.43
2018-07-13T07:11:09.398Z,54.74
2018-07-13T07:12:09.390Z,54.71
2018-07-13T07:13:09.400Z,54.62
2018-07-13T07:14:09.391Z,54.23
2018-07-13T07:15:09.496Z,54.52
2018-07-13T07:16:09.406Z,54.45
2018-07-13T07:17:09.486Z,54.74
2018-07-13T07:18:09.396Z,54.35
2018-07-13T07:19:09.406Z,54.16
2018-07-13T07:20:09.398Z,53.97
2018-07-13T07:21:09.400Z,53.77
2018-07-13T07:22:09.399Z,54.26
2018-07-13T07:23:09.399Z,53.51
2018-07-13T07:24:09.407Z,53.31
2018-07-13T07:25:09.403Z,54.09
2018-07-13T07:26:09.405Z,53.70
2018-07-13T07:27:09.405Z,53.31
2018-07-13T07:28:09.407Z,53.31
2018-07-13T07:29:09.420Z,52.15
2018-07-13T07:30:09.422Z,51.96
2018-07-13T07:31:09.412Z,51.96
2018-07-13T07:32:09.421Z,52.12
2018-07-13T07:33:09.413Z,50.31
2018-07-13T07:34:09.414Z,50.60
2018-07-13T07:35:09.416Z,51.76
2018-07-13T07:36:09.422Z,52.15
2018-07-13T07:37:09.421Z,52.15
2018-07-13T07:38:09.419Z,51.76
2018-07-13T07:39:09.423Z,51.47
2018-07-13T07:40:09.423Z,51.40
2018-07-13T07:41:09.424Z,51.31
2018-07-13T07:42:09.426Z,50.34
2018-07-13T07:43:09.432Z,50.82
2018-07-13T07:44:09.428Z,51.79
2018-07-13T07:45:09.430Z,51.79
2018-07-13T07:46:09.435Z,51.89
2018-07-13T07:47:09.437Z,51.50
2018-07-13T07:48:09.436Z,50.72
2018-07-13T07:49:09.441Z,51.21
2018-07-13T07:50:09.440Z,51.11
2018-07-13T07:51:09.442Z,51.40
2018-07-13T07:52:09.442Z,51.89
2018-07-13T07:53:09.459Z,52.08
2018-07-13T07:54:09.458Z,51.69
2018-07-13T07:55:09.454Z,52.11
2018-07-13T07:56:09.448Z,53.53
2018-07-13T07:57:09.461Z,52.50
2018-07-13T07:58:09.452Z,52.01
2018-07-13T07:59:09.456Z,51.23
2018-07-13T08:00:09.470Z,50.94
2018-07-13T08:01:09.457Z,51.16
2018-07-13T08:02:09.470Z,51.06
2018-07-13T08:03:09.475Z,51.14
2018-07-13T08:04:09.468Z,50.77
2018-07-13T08:05:09.466Z,50.87
2018-07-13T08:06:09.577Z,50.77
2018-07-13T08:07:09.969Z,50.38
2018-07-13T08:08:09.471Z,50.87
2018-07-13T08:09:09.475Z,51.45
2018-07-13T08:10:09.480Z,50.87
2018-07-13T08:11:09.477Z,50.51
2018-07-13T08:12:09.489Z,50.68
2018-07-13T08:13:09.484Z,50.58
2018-07-13T08:14:09.660Z,50.29
2018-07-13T08:15:09.491Z,50.21
2018-07-13T08:16:09.507Z,50.21
2018-07-13T08:17:09.525Z,49.12
2018-07-13T08:18:09.508Z,48.73
2018-07-13T08:19:09.506Z,48.57
2018-07-13T08:20:09.506Z,49.15
2018-07-13T08:21:09.508Z,48.44
2018-07-13T08:22:09.504Z,49.15
2018-07-13T08:23:09.508Z,49.24
2018-07-13T08:24:09.509Z,49.34
2018-07-13T08:25:09.519Z,49.99
2018-07-13T08:26:09.511Z,50.02
2018-07-13T08:27:09.516Z,49.63
2018-07-13T08:28:09.517Z,48.95
2018-07-13T08:29:09.530Z,48.66
2018-07-13T08:30:09.520Z,48.95
2018-07-13T08:31:09.532Z,49.63
2018-07-13T08:32:09.618Z,49.82
2018-07-13T08:33:09.533Z,49.82
2018-07-13T08:34:09.638Z,49.44
2018-07-13T08:35:09.536Z,49.24
2018-07-13T08:36:09.535Z,49.34
2018-07-13T08:37:09.538Z,48.85
2018-07-13T08:38:09.540Z,48.85
2018-07-13T08:39:09.544Z,48.85
2018-07-13T08:40:09.546Z,47.98
2018-07-13T08:41:09.547Z,48.47
2018-07-13T08:42:09.550Z,48.68
2018-07-13T08:43:09.553Z,48.85
2018-07-13T08:44:09.665Z,48.66
2018-07-13T08:45:09.562Z,48.75
2018-07-13T08:46:09.565Z,48.37
2018-07-13T08:47:09.576Z,49.05
2018-07-13T08:48:09.565Z,48.75
2018-07-13T08:49:09.590Z,48.66
2018-07-13T08:50:09.572Z,48.85
2018-07-13T08:51:09.583Z,48.75
2018-07-13T08:52:09.580Z,48.85
2018-07-13T08:53:09.581Z,49.46
2018-07-13T08:54:09.585Z,48.95
2018-07-13T08:55:09.585Z,48.88
2018-07-13T08:56:09.623Z,48.97
2018-07-13T08:57:09.600Z,48.20
2018-07-13T08:58:09.593Z,47.83
2018-07-13T08:59:09.601Z,47.74
2018-07-13T09:00:09.600Z,47.93
2018-07-13T09:01:09.605Z,47.74
2018-07-13T09:02:09.608Z,47.17
2018-07-13T09:03:09.616Z,47.08
2018-07-13T09:04:09.632Z,46.69
2018-07-13T09:05:09.615Z,46.28
2018-07-13T09:06:09.626Z,45.91
2018-07-13T09:07:09.635Z,46.50
2018-07-13T09:08:09.630Z,45.91
2018-07-13T09:09:09.634Z,46.28
2018-07-13T09:10:09.631Z,45.91
2018-07-13T09:11:09.644Z,45.60
2018-07-13T09:12:09.633Z,45.69
2018-07-13T09:13:09.644Z,45.40
2018-07-13T09:14:09.642Z,45.50
2018-07-13T09:15:09.643Z,46.18
2018-07-13T09:16:09.655Z,46.37
2018-07-13T09:17:09.693Z,46.08
2018-07-13T09:18:09.716Z,46.37
2018-07-13T09:19:09.662Z,46.20
2018-07-13T09:20:09.659Z,45.32
2018-07-13T09:21:09.662Z,45.14
2018-07-13T09:22:09.670Z,45.32
2018-07-13T09:23:09.682Z,46.11
2018-07-13T09:24:09.699Z,45.23
2018-07-13T09:25:09.673Z,45.14
2018-07-13T09:26:09.676Z,45.32
2018-07-13T09:27:09.694Z,44.94
2018-07-13T09:28:09.682Z,44.96
2018-07-13T09:29:09.696Z,44.57
2018-07-13T09:30:09.692Z,44.96
2018-07-13T09:31:09.703Z,45.06
2018-07-13T09:32:09.700Z,44.57
2018-07-13T09:33:09.727Z,44.09
2018-07-13T09:34:09.701Z,44.76
2018-07-13T09:35:09.712Z,44.67
2018-07-13T09:36:09.709Z,42.84
2018-07-13T09:37:09.724Z,42.94
2018-07-13T09:38:09.720Z,43.62
2018-07-13T09:39:09.723Z,42.84
2018-07-13T09:40:09.729Z,42.74
2018-07-13T09:41:09.731Z,42.84
2018-07-13T09:42:09.729Z,42.45
2018-07-13T09:43:09.741Z,41.77
2018-07-13T09:44:09.740Z,41.86
2018-07-13T09:45:09.741Z,41.38
2018-07-13T09:46:09.748Z,41.01
2018-07-13T09:47:09.752Z,41.01
2018-07-13T09:48:09.753Z,41.50
2018-07-13T09:49:09.753Z,41.20
2018-07-13T09:50:09.762Z,41.20
2018-07-13T09:51:09.767Z,41.01
2018-07-13T09:52:09.764Z,41.40
2018-07-13T09:53:09.775Z,41.61
2018-07-13T09:54:09.909Z,41.22
2018-07-13T09:55:09.783Z,40.33
2018-07-13T09:56:09.788Z,40.03
2018-07-13T09:57:09.787Z,39.75
2018-07-13T09:58:09.793Z,40.01
2018-07-13T09:59:09.795Z,39.92
2018-07-13T10:00:09.801Z,40.01
2018-07-13T10:01:09.796Z,41.09
2018-07-13T10:02:09.814Z,40.21
2018-07-13T10:03:09.811Z,40.23
2018-07-13T10:04:09.808Z,39.43
2018-07-13T10:05:09.816Z,39.14
2018-07-13T10:06:09.814Z,39.14
2018-07-13T10:07:09.824Z,40.01
2018-07-13T10:08:09.824Z,40.01
2018-07-13T10:09:09.827Z,40.21
2018-07-13T10:10:09.832Z,40.23
2018-07-13T10:11:09.836Z,39.36
2018-07-13T10:12:09.839Z,39.16
2018-07-13T10:13:09.848Z,38.87
2018-07-13T10:14:09.862Z,38.18
2018-07-13T10:15:09.850Z,37.79
2018-07-13T10:16:09.866Z,38.20
2018-07-13T10:17:09.867Z,37.52
2018-07-13T10:18:09.864Z,37.23
2018-07-13T10:19:09.875Z,37.33
2018-07-13T10:20:09.869Z,37.62
2018-07-13T10:21:09.886Z,38.10
2018-07-13T10:22:09.881Z,37.89
2018-07-13T10:23:09.882Z,38.09
2018-07-13T10:24:09.893Z,37.99
2018-07-13T10:25:09.893Z,37.81
2018-07-13T10:26:09.893Z,38.18
2018-07-13T10:27:09.912Z,38.28
2018-07-13T10:28:09.898Z,38.98
2018-07-13T10:29:09.943Z,38.89
2018-07-13T10:30:09.911Z,38.20
2018-07-13T10:31:09.926Z,37.33
2018-07-13T10:32:09.920Z,37.04
2018-07-13T10:33:09.918Z,37.04
2018-07-13T10:34:09.930Z,36.57
2018-07-13T10:35:09.931Z,35.88
2018-07-13T10:36:09.935Z,36.35
2018-07-13T10:37:09.944Z,37.05
2018-07-13T10:38:09.943Z,36.86
2018-07-13T10:39:09.947Z,35.30
2018-07-13T10:40:09.954Z,34.91
2018-07-13T10:41:09.955Z,35.08
2018-07-13T10:42:09.968Z,34.99
2018-07-13T10:43:09.964Z,36.06
2018-07-13T10:44:09.974Z,37.23
2018-07-13T10:45:09.975Z,37.04
2018-07-13T10:46:09.980Z,36.63
2018-07-13T10:47:09.978Z,37.41
2018-07-13T10:48:09.984Z,37.21
2018-07-13T10:49:09.990Z,36.92
2018-07-13T10:50:09.993Z,37.39
2018-07-13T10:51:10.001Z,37.19
2018-07-13T10:52:10.009Z,37.31
2018-07-13T10:53:10.004Z,37.41
2018-07-13T10:54:10.013Z,36.94
2018-07-13T10:55:10.013Z,36.65
2018-07-13T10:56:10.018Z,35.96
2018-07-13T10:57:10.024Z,34.31
2018-07-13T10:58:10.032Z,34.31
2018-07-13T10:59:10.035Z,35.08
2018-07-13T11:00:10.044Z,33.83
2018-07-13T11:01:10.050Z,33.15
2018-07-13T11:02:10.046Z,33.25
2018-07-13T11:03:10.055Z,33.06
2018-07-13T11:04:10.060Z,32.96
2018-07-13T11:05:10.055Z,32.76
2018-07-13T11:06:10.066Z,33.17
2018-07-13T11:07:10.065Z,33.26
2018-07-13T11:08:10.131Z,32.86
2018-07-13T11:09:10.081Z,33.06
2018-07-13T11:10:10.077Z,33.15
2018-07-13T11:11:10.080Z,32.96
2018-07-13T11:12:10.087Z,33.04
2018-07-13T11:13:10.099Z,33.04
2018-07-13T11:14:10.103Z,33.23
2018-07-13T11:15:10.103Z,33.23
2018-07-13T11:16:10.114Z,33.72
2018-07-13T11:17:10.107Z,33.93
2018-07-13T11:18:10.118Z,34.52
2018-07-13T11:19:10.115Z,32.87
2018-07-13T11:20:10.122Z,32.37
2018-07-13T11:21:10.130Z,32.67
2018-07-13T11:22:10.139Z,32.57
2018-07-13T11:23:10.134Z,32.86
2018-07-13T11:24:10.181Z,31.98
2018-07-13T11:25:10.147Z,31.99
2018-07-13T11:26:10.154Z,31.99
2018-07-13T11:27:10.150Z,32.29
2018-07-13T11:28:10.153Z,31.80
2018-07-13T11:29:10.158Z,31.31
2018-07-13T11:30:10.165Z,31.23
2018-07-13T11:31:10.168Z,30.94
2018-07-13T11:32:10.173Z,31.13
2018-07-13T11:33:10.191Z,31.52
2018-07-13T11:34:10.182Z,30.94
2018-07-13T11:35:10.200Z,30.66
2018-07-13T11:36:10.194Z,31.15
2018-07-13T11:37:10.462Z,29.98
2018-07-13T11:38:10.209Z,29.79
2018-07-13T11:39:10.206Z,30.86
2018-07-13T11:40:10.209Z,29.98
2018-07-13T11:41:10.214Z,29.79
2018-07-13T11:42:10.223Z,30.18
2018-07-13T11:43:10.223Z,30.45
2018-07-13T11:44:10.261Z,30.66
2018-07-13T11:45:10.233Z,29.96
2018-07-13T11:46:10.247Z,31.62
2018-07-13T11:47:10.243Z,30.47
2018-07-13T11:48:10.247Z,29.79
2018-07-13T11:49:10.257Z,29.39
2018-07-13T11:50:10.266Z,29.17
2018-07-13T11:51:10.263Z,29.86
2018-07-13T11:52:10.319Z,29.86
2018-07-13T11:53:10.280Z,30.35
2018-07-13T11:54:10.276Z,29.96
2018-07-13T11:55:10.281Z,29.85
2018-07-13T11:56:10.301Z,30.32
2018-07-13T11:57:10.292Z,30.90
2018-07-13T11:58:10.293Z,31.69
2018-07-13T11:59:10.299Z,31.88
2018-07-13T12:00:10.319Z,31.20
2018-07-13T12:01:10.324Z,31.49
2018-07-13T12:02:10.319Z,31.02
2018-07-13T12:03:10.333Z,30.24
2018-07-13T12:04:10.322Z,30.63
2018-07-13T12:05:10.327Z,30.55
2018-07-13T12:06:10.336Z,30.93
2018-07-13T12:07:10.337Z,30.93
2018-07-13T12:08:10.341Z,30.16
2018-07-13T12:09:10.348Z,29.67
2018-07-13T12:10:10.351Z,28.79
2018-07-13T12:11:10.362Z,29.08
2018-07-13T12:12:10.362Z,27.81
2018-07-13T12:13:10.364Z,27.81
2018-07-13T12:14:10.375Z,28.59
2018-07-13T12:15:10.375Z,27.13
2018-07-13T12:16:10.385Z,27.03
2018-07-13T12:17:10.392Z,27.51
2018-07-13T12:18:10.397Z,28.97
2018-07-13T12:19:10.400Z,28.89
2018-07-13T12:20:10.403Z,28.59
2018-07-13T12:21:10.413Z,28.20
2018-07-13T12:22:10.421Z,27.64
2018-07-13T12:23:10.469Z,28.22
2018-07-13T12:24:10.416Z,28.32
2018-07-13T12:25:10.425Z,27.64
2018-07-13T12:26:10.428Z,27.54
2018-07-13T12:27:10.439Z,27.05
2018-07-13T12:28:10.435Z,27.15
2018-07-13T12:29:10.440Z,26.87
2018-07-13T12:30:10.454Z,27.06
2018-07-13T12:31:10.458Z,28.43
2018-07-13T12:32:10.460Z,27.54
2018-07-13T12:33:10.465Z,28.11
2018-07-13T12:34:10.464Z,28.18
2018-07-13T12:35:10.489Z,30.42
2018-07-13T12:36:10.475Z,31.01
2018-07-13T12:37:10.484Z,29.44
2018-07-13T12:38:10.491Z,29.82
2018-07-13T12:39:10.498Z,31.01
2018-07-13T12:40:10.494Z,29.06
2018-07-13T12:41:10.506Z,28.86
2018-07-13T12:42:10.501Z,29.07
2018-07-13T12:43:10.506Z,29.85
2018-07-13T12:44:10.517Z,29.27
2018-07-13T12:45:10.518Z,28.79
2018-07-13T12:46:10.543Z,28.89
2018-07-13T12:47:10.524Z,27.91
2018-07-13T12:48:10.536Z,28.30
2018-07-13T12:49:10.607Z,28.11
2018-07-13T12:50:10.547Z,28.99
2018-07-13T12:51:10.552Z,28.71
2018-07-13T12:52:10.546Z,28.32